sensor_id;sensor_type;location;lat;lon;timestamp;P1;durP1;ratioP1;P2;durP2;ratioP2
74363;SDS011;62797;49.740;10.154;2024-03-25T00:00:55;7.40;;;5.20;;
74363;SDS011;62797;49.740;10.154;2024-03-25T00:03:27;12.40;;;6.05;;
74363;SDS011;62797;49.740;10.154;2024-03-25T00:06:01;9.35;;;6.15;;
74363;SDS011;62797;49.740;10.154;2024-03-25T00:08:33;16.13;;;6.88;;
74363;SDS011;62797;49.740;10.154;2024-03-25T00:11:05;15.32;;;6.60;;
74363;SDS011;62797;49.740;10.154;2024-03-25T00:13:38;7.47;;;5.22;;
74363;SDS011;62797;49.740;10.154;2024-03-25T00:16:10;12.20;;;6.35;;
74363;SDS011;62797;49.740;10.154;2024-03-25T00:18:43;15.13;;;7.95;;
74363;SDS011;62797;49.740;10.154;2024-03-25T00:21:15;12.60;;;6.57;;
74363;SDS011;62797;49.740;10.154;2024-03-25T00:23:48;13.15;;;5.90;;
74363;SDS011;62797;49.740;10.154;2024-03-25T00:26:19;18.98;;;5.65;;
74363;SDS011;62797;49.740;10.154;2024-03-25T00:28:58;10.32;;;5.70;;
74363;SDS011;62797;49.740;10.154;2024-03-25T00:31:33;10.75;;;5.82;;
74363;SDS011;62797;49.740;10.154;2024-03-25T00:34:04;8.07;;;4.57;;
74363;SDS011;62797;49.740;10.154;2024-03-25T00:36:36;10.48;;;5.55;;
74363;SDS011;62797;49.740;10.154;2024-03-25T00:39:09;13.77;;;6.43;;
74363;SDS011;62797;49.740;10.154;2024-03-25T00:41:42;10.43;;;5.93;;
74363;SDS011;62797;49.740;10.154;2024-03-25T00:44:13;9.32;;;5.65;;
74363;SDS011;62797;49.740;10.154;2024-03-25T00:46:45;10.20;;;5.75;;
74363;SDS011;62797;49.740;10.154;2024-03-25T00:49:17;13.50;;;6.03;;
74363;SDS011;62797;49.740;10.154;2024-03-25T00:51:49;13.68;;;5.75;;
74363;SDS011;62797;49.740;10.154;2024-03-25T00:57:15;11.73;;;4.80;;
74363;SDS011;62797;49.740;10.154;2024-03-25T00:59:54;13.88;;;5.53;;
74363;SDS011;62797;49.740;10.154;2024-03-25T01:02:26;7.70;;;4.65;;
74363;SDS011;62797;49.740;10.154;2024-03-25T01:05:00;10.35;;;5.45;;
74363;SDS011;62797;49.740;10.154;2024-03-25T01:07:32;14.13;;;6.13;;
74363;SDS011;62797;49.740;10.154;2024-03-25T01:10:05;8.38;;;4.30;;
74363;SDS011;62797;49.740;10.154;2024-03-25T01:12:37;11.15;;;5.82;;
74363;SDS011;62797;49.740;10.154;2024-03-25T01:15:10;13.82;;;5.78;;
74363;SDS011;62797;49.740;10.154;2024-03-25T01:17:50;9.35;;;6.03;;
74363;SDS011;62797;49.740;10.154;2024-03-25T01:20:29;11.77;;;5.47;;
74363;SDS011;62797;49.740;10.154;2024-03-25T01:23:01;14.57;;;6.47;;
74363;SDS011;62797;49.740;10.154;2024-03-25T01:25:33;10.43;;;5.65;;
74363;SDS011;62797;49.740;10.154;2024-03-25T01:28:05;10.85;;;5.03;;
74363;SDS011;62797;49.740;10.154;2024-03-25T01:30:37;11.80;;;5.28;;
74363;SDS011;62797;49.740;10.154;2024-03-25T01:33:10;14.93;;;5.40;;
74363;SDS011;62797;49.740;10.154;2024-03-25T01:35:42;9.88;;;5.45;;
74363;SDS011;62797;49.740;10.154;2024-03-25T01:38:14;16.48;;;6.47;;
74363;SDS011;62797;49.740;10.154;2024-03-25T01:40:46;8.57;;;4.43;;
74363;SDS011;62797;49.740;10.154;2024-03-25T01:43:19;9.93;;;4.93;;
74363;SDS011;62797;49.740;10.154;2024-03-25T01:45:51;11.38;;;5.88;;
74363;SDS011;62797;49.740;10.154;2024-03-25T01:48:32;8.45;;;4.97;;
74363;SDS011;62797;49.740;10.154;2024-03-25T01:51:12;8.43;;;5.45;;
74363;SDS011;62797;49.740;10.154;2024-03-25T01:53:47;13.98;;;5.25;;
74363;SDS011;62797;49.740;10.154;2024-03-25T01:56:21;9.10;;;4.80;;
74363;SDS011;62797;49.740;10.154;2024-03-25T01:59:01;8.35;;;4.80;;
74363;SDS011;62797;49.740;10.154;2024-03-25T02:01:35;9.18;;;5.50;;
74363;SDS011;62797;49.740;10.154;2024-03-25T02:04:09;13.02;;;6.85;;
74363;SDS011;62797;49.740;10.154;2024-03-25T02:06:41;8.55;;;5.65;;
74363;SDS011;62797;49.740;10.154;2024-03-25T02:09:15;13.10;;;6.20;;
74363;SDS011;62797;49.740;10.154;2024-03-25T02:11:49;9.57;;;5.07;;
74363;SDS011;62797;49.740;10.154;2024-03-25T02:14:21;11.30;;;5.47;;
74363;SDS011;62797;49.740;10.154;2024-03-25T02:16:54;9.32;;;6.07;;
74363;SDS011;62797;49.740;10.154;2024-03-25T02:19:26;9.98;;;5.93;;
74363;SDS011;62797;49.740;10.154;2024-03-25T02:21:59;12.52;;;6.57;;
74363;SDS011;62797;49.740;10.154;2024-03-25T02:24:31;10.27;;;6.15;;
74363;SDS011;62797;49.740;10.154;2024-03-25T02:27:07;13.13;;;6.53;;
74363;SDS011;62797;49.740;10.154;2024-03-25T02:29:41;13.15;;;5.78;;
74363;SDS011;62797;49.740;10.154;2024-03-25T02:32:13;13.25;;;7.10;;
74363;SDS011;62797;49.740;10.154;2024-03-25T02:34:51;10.15;;;5.32;;
74363;SDS011;62797;49.740;10.154;2024-03-25T02:37:25;17.05;;;5.93;;
74363;SDS011;62797;49.740;10.154;2024-03-25T02:39:58;20.45;;;8.90;;
74363;SDS011;62797;49.740;10.154;2024-03-25T02:42:33;13.40;;;6.68;;
74363;SDS011;62797;49.740;10.154;2024-03-25T02:45:05;11.50;;;7.03;;
74363;SDS011;62797;49.740;10.154;2024-03-25T02:47:37;14.88;;;6.95;;
74363;SDS011;62797;49.740;10.154;2024-03-25T02:50:09;12.60;;;6.72;;
74363;SDS011;62797;49.740;10.154;2024-03-25T02:52:41;13.85;;;6.80;;
74363;SDS011;62797;49.740;10.154;2024-03-25T02:55:13;14.48;;;6.88;;
74363;SDS011;62797;49.740;10.154;2024-03-25T02:57:45;13.73;;;7.53;;
74363;SDS011;62797;49.740;10.154;2024-03-25T03:00:17;13.73;;;6.60;;
74363;SDS011;62797;49.740;10.154;2024-03-25T03:02:49;13.00;;;7.60;;
74363;SDS011;62797;49.740;10.154;2024-03-25T03:05:21;13.35;;;7.28;;
74363;SDS011;62797;49.740;10.154;2024-03-25T03:07:53;17.13;;;6.90;;
74363;SDS011;62797;49.740;10.154;2024-03-25T03:10:25;12.88;;;7.10;;
74363;SDS011;62797;49.740;10.154;2024-03-25T03:12:58;14.13;;;6.53;;
74363;SDS011;62797;49.740;10.154;2024-03-25T03:15:30;14.85;;;7.20;;
74363;SDS011;62797;49.740;10.154;2024-03-25T03:18:02;17.88;;;8.73;;
74363;SDS011;62797;49.740;10.154;2024-03-25T03:20:35;14.35;;;7.38;;
74363;SDS011;62797;49.740;10.154;2024-03-25T03:23:07;15.75;;;8.13;;
74363;SDS011;62797;49.740;10.154;2024-03-25T03:25:40;14.27;;;6.45;;
74363;SDS011;62797;49.740;10.154;2024-03-25T03:28:13;14.05;;;7.70;;
74363;SDS011;62797;49.740;10.154;2024-03-25T03:30:46;13.95;;;7.85;;
74363;SDS011;62797;49.740;10.154;2024-03-25T03:33:19;11.60;;;6.53;;
74363;SDS011;62797;49.740;10.154;2024-03-25T03:35:54;14.05;;;6.85;;
74363;SDS011;62797;49.740;10.154;2024-03-25T03:38:27;15.82;;;6.60;;
74363;SDS011;62797;49.740;10.154;2024-03-25T03:41:01;15.60;;;7.10;;
74363;SDS011;62797;49.740;10.154;2024-03-25T03:43:35;12.73;;;6.63;;
74363;SDS011;62797;49.740;10.154;2024-03-25T03:46:08;14.98;;;6.25;;
74363;SDS011;62797;49.740;10.154;2024-03-25T03:48:39;11.90;;;6.03;;
74363;SDS011;62797;49.740;10.154;2024-03-25T03:51:12;18.48;;;7.47;;
74363;SDS011;62797;49.740;10.154;2024-03-25T03:53:44;11.60;;;5.78;;
74363;SDS011;62797;49.740;10.154;2024-03-25T03:56:17;18.55;;;7.30;;
74363;SDS011;62797;49.740;10.154;2024-03-25T03:58:48;11.00;;;6.80;;
74363;SDS011;62797;49.740;10.154;2024-03-25T04:01:27;12.05;;;6.10;;
74363;SDS011;62797;49.740;10.154;2024-03-25T04:03:59;15.70;;;7.47;;
74363;SDS011;62797;49.740;10.154;2024-03-25T04:06:31;20.77;;;7.78;;
74363;SDS011;62797;49.740;10.154;2024-03-25T04:09:03;11.57;;;7.20;;
74363;SDS011;62797;49.740;10.154;2024-03-25T04:11:36;9.40;;;6.30;;
74363;SDS011;62797;49.740;10.154;2024-03-25T04:14:08;13.20;;;6.90;;
74363;SDS011;62797;49.740;10.154;2024-03-25T04:16:41;31.45;;;10.27;;
74363;SDS011;62797;49.740;10.154;2024-03-25T04:19:13;13.02;;;6.82;;
74363;SDS011;62797;49.740;10.154;2024-03-25T04:21:45;10.25;;;5.97;;
74363;SDS011;62797;49.740;10.154;2024-03-25T04:24:17;11.07;;;5.10;;
74363;SDS011;62797;49.740;10.154;2024-03-25T04:26:49;14.10;;;6.40;;
74363;SDS011;62797;49.740;10.154;2024-03-25T04:29:21;13.80;;;6.60;;
74363;SDS011;62797;49.740;10.154;2024-03-25T04:31:53;16.52;;;6.75;;
74363;SDS011;62797;49.740;10.154;2024-03-25T04:34:25;9.55;;;6.63;;
74363;SDS011;62797;49.740;10.154;2024-03-25T04:36:57;12.05;;;7.45;;
74363;SDS011;62797;49.740;10.154;2024-03-25T04:39:29;11.40;;;5.75;;
74363;SDS011;62797;49.740;10.154;2024-03-25T04:42:03;14.13;;;6.00;;
74363;SDS011;62797;49.740;10.154;2024-03-25T04:44:35;14.32;;;7.15;;
74363;SDS011;62797;49.740;10.154;2024-03-25T04:47:07;16.38;;;6.60;;
74363;SDS011;62797;49.740;10.154;2024-03-25T04:49:39;11.23;;;5.90;;
74363;SDS011;62797;49.740;10.154;2024-03-25T04:52:12;17.13;;;5.93;;
74363;SDS011;62797;49.740;10.154;2024-03-25T04:58:11;10.98;;;6.38;;
74363;SDS011;62797;49.740;10.154;2024-03-25T05:00:43;10.98;;;6.55;;
74363;SDS011;62797;49.740;10.154;2024-03-25T05:03:15;18.20;;;7.55;;
74363;SDS011;62797;49.740;10.154;2024-03-25T05:05:47;11.15;;;6.15;;
74363;SDS011;62797;49.740;10.154;2024-03-25T05:08:19;14.60;;;7.10;;
74363;SDS011;62797;49.740;10.154;2024-03-25T05:10:52;13.52;;;6.35;;
74363;SDS011;62797;49.740;10.154;2024-03-25T05:13:26;10.93;;;6.47;;
74363;SDS011;62797;49.740;10.154;2024-03-25T05:15:57;16.13;;;6.25;;
74363;SDS011;62797;49.740;10.154;2024-03-25T05:18:29;15.23;;;7.35;;
74363;SDS011;62797;49.740;10.154;2024-03-25T05:21:01;12.75;;;6.65;;
74363;SDS011;62797;49.740;10.154;2024-03-25T05:23:33;16.35;;;6.20;;
74363;SDS011;62797;49.740;10.154;2024-03-25T05:26:06;8.30;;;5.63;;
74363;SDS011;62797;49.740;10.154;2024-03-25T05:28:38;11.30;;;6.20;;
74363;SDS011;62797;49.740;10.154;2024-03-25T05:31:11;9.38;;;4.70;;
74363;SDS011;62797;49.740;10.154;2024-03-25T05:33:42;16.58;;;7.30;;
74363;SDS011;62797;49.740;10.154;2024-03-25T05:36:15;13.02;;;5.57;;
74363;SDS011;62797;49.740;10.154;2024-03-25T05:38:47;12.70;;;5.95;;
74363;SDS011;62797;49.740;10.154;2024-03-25T05:41:19;12.43;;;6.30;;
74363;SDS011;62797;49.740;10.154;2024-03-25T05:43:52;7.93;;;4.95;;
74363;SDS011;62797;49.740;10.154;2024-03-25T05:46:24;12.73;;;6.00;;
74363;SDS011;62797;49.740;10.154;2024-03-25T05:48:57;8.43;;;5.43;;
74363;SDS011;62797;49.740;10.154;2024-03-25T05:51:33;18.10;;;6.60;;
74363;SDS011;62797;49.740;10.154;2024-03-25T05:54:05;14.48;;;6.10;;
74363;SDS011;62797;49.740;10.154;2024-03-25T05:56:36;17.05;;;6.10;;
74363;SDS011;62797;49.740;10.154;2024-03-25T05:59:09;10.90;;;5.50;;
74363;SDS011;62797;49.740;10.154;2024-03-25T06:01:47;10.38;;;5.90;;
74363;SDS011;62797;49.740;10.154;2024-03-25T06:04:19;10.35;;;5.72;;
74363;SDS011;62797;49.740;10.154;2024-03-25T06:06:52;9.88;;;6.20;;
74363;SDS011;62797;49.740;10.154;2024-03-25T06:09:24;15.90;;;6.13;;
74363;SDS011;62797;49.740;10.154;2024-03-25T06:11:57;13.25;;;6.05;;
74363;SDS011;62797;49.740;10.154;2024-03-25T06:14:29;14.23;;;5.47;;
74363;SDS011;62797;49.740;10.154;2024-03-25T06:17:01;11.88;;;5.65;;
74363;SDS011;62797;49.740;10.154;2024-03-25T06:19:33;15.25;;;5.78;;
74363;SDS011;62797;49.740;10.154;2024-03-25T06:22:05;11.40;;;5.60;;
74363;SDS011;62797;49.740;10.154;2024-03-25T06:24:37;20.42;;;6.93;;
74363;SDS011;62797;49.740;10.154;2024-03-25T06:27:09;20.52;;;6.20;;
74363;SDS011;62797;49.740;10.154;2024-03-25T06:29:42;15.52;;;6.35;;
74363;SDS011;62797;49.740;10.154;2024-03-25T06:32:14;11.07;;;5.15;;
74363;SDS011;62797;49.740;10.154;2024-03-25T06:35:06;10.60;;;5.10;;
74363;SDS011;62797;49.740;10.154;2024-03-25T06:37:38;10.68;;;5.68;;
74363;SDS011;62797;49.740;10.154;2024-03-25T06:40:11;14.05;;;7.70;;
74363;SDS011;62797;49.740;10.154;2024-03-25T06:42:43;16.20;;;6.03;;
74363;SDS011;62797;49.740;10.154;2024-03-25T06:45:15;18.33;;;6.43;;
74363;SDS011;62797;49.740;10.154;2024-03-25T06:47:48;12.80;;;6.95;;
74363;SDS011;62797;49.740;10.154;2024-03-25T06:50:20;14.23;;;7.10;;
74363;SDS011;62797;49.740;10.154;2024-03-25T06:52:52;8.57;;;5.13;;
74363;SDS011;62797;49.740;10.154;2024-03-25T06:58:41;13.05;;;7.13;;
74363;SDS011;62797;49.740;10.154;2024-03-25T07:01:14;16.55;;;6.97;;
74363;SDS011;62797;49.740;10.154;2024-03-25T07:03:54;15.90;;;7.13;;
74363;SDS011;62797;49.740;10.154;2024-03-25T07:06:26;15.80;;;7.40;;
74363;SDS011;62797;49.740;10.154;2024-03-25T07:08:59;23.52;;;8.40;;
74363;SDS011;62797;49.740;10.154;2024-03-25T07:11:30;22.33;;;8.10;;
74363;SDS011;62797;49.740;10.154;2024-03-25T07:14:03;21.67;;;9.70;;
74363;SDS011;62797;49.740;10.154;2024-03-25T07:16:37;15.25;;;7.15;;
74363;SDS011;62797;49.740;10.154;2024-03-25T07:19:09;13.27;;;7.40;;
74363;SDS011;62797;49.740;10.154;2024-03-25T07:21:41;13.93;;;7.22;;
74363;SDS011;62797;49.740;10.154;2024-03-25T07:24:13;14.57;;;8.20;;
74363;SDS011;62797;49.740;10.154;2024-03-25T07:26:45;16.65;;;8.20;;
74363;SDS011;62797;49.740;10.154;2024-03-25T07:29:18;17.20;;;9.10;;
74363;SDS011;62797;49.740;10.154;2024-03-25T07:31:49;13.85;;;7.55;;
74363;SDS011;62797;49.740;10.154;2024-03-25T07:34:23;15.10;;;8.60;;
74363;SDS011;62797;49.740;10.154;2024-03-25T07:36:55;17.13;;;8.50;;
74363;SDS011;62797;49.740;10.154;2024-03-25T07:39:27;26.08;;;10.25;;
74363;SDS011;62797;49.740;10.154;2024-03-25T07:41:59;18.58;;;9.20;;
74363;SDS011;62797;49.740;10.154;2024-03-25T07:44:31;20.45;;;8.25;;
74363;SDS011;62797;49.740;10.154;2024-03-25T07:47:03;19.50;;;7.75;;
74363;SDS011;62797;49.740;10.154;2024-03-25T07:49:35;17.58;;;8.45;;
74363;SDS011;62797;49.740;10.154;2024-03-25T07:52:07;26.75;;;8.02;;
74363;SDS011;62797;49.740;10.154;2024-03-25T07:54:42;12.93;;;7.75;;
74363;SDS011;62797;49.740;10.154;2024-03-25T07:57:14;21.30;;;8.85;;
74363;SDS011;62797;49.740;10.154;2024-03-25T07:59:53;20.88;;;8.10;;
74363;SDS011;62797;49.740;10.154;2024-03-25T08:02:25;15.90;;;8.23;;
74363;SDS011;62797;49.740;10.154;2024-03-25T08:04:59;14.15;;;7.82;;
74363;SDS011;62797;49.740;10.154;2024-03-25T08:07:31;9.88;;;6.03;;
74363;SDS011;62797;49.740;10.154;2024-03-25T08:10:03;13.65;;;6.57;;
74363;SDS011;62797;49.740;10.154;2024-03-25T08:12:36;12.23;;;5.82;;
74363;SDS011;62797;49.740;10.154;2024-03-25T08:15:09;15.77;;;5.68;;
74363;SDS011;62797;49.740;10.154;2024-03-25T08:17:42;23.38;;;7.88;;
74363;SDS011;62797;49.740;10.154;2024-03-25T08:20:15;15.85;;;5.85;;
74363;SDS011;62797;49.740;10.154;2024-03-25T08:22:48;16.13;;;6.38;;
74363;SDS011;62797;49.740;10.154;2024-03-25T08:25:22;15.48;;;6.45;;
74363;SDS011;62797;49.740;10.154;2024-03-25T08:27:54;21.60;;;5.85;;
74363;SDS011;62797;49.740;10.154;2024-03-25T08:30:30;14.95;;;5.85;;
74363;SDS011;62797;49.740;10.154;2024-03-25T08:33:02;14.65;;;5.55;;
74363;SDS011;62797;49.740;10.154;2024-03-25T08:35:33;14.35;;;5.82;;
74363;SDS011;62797;49.740;10.154;2024-03-25T08:38:05;11.20;;;5.82;;
74363;SDS011;62797;49.740;10.154;2024-03-25T08:40:37;8.02;;;3.92;;
74363;SDS011;62797;49.740;10.154;2024-03-25T08:43:12;13.80;;;4.65;;
74363;SDS011;62797;49.740;10.154;2024-03-25T08:45:44;12.48;;;4.47;;
74363;SDS011;62797;49.740;10.154;2024-03-25T08:48:16;13.57;;;4.72;;
74363;SDS011;62797;49.740;10.154;2024-03-25T08:50:48;7.63;;;3.80;;
74363;SDS011;62797;49.740;10.154;2024-03-25T08:53:20;11.52;;;4.00;;
74363;SDS011;62797;49.740;10.154;2024-03-25T08:59:20;10.65;;;4.28;;
74363;SDS011;62797;49.740;10.154;2024-03-25T09:01:59;8.57;;;3.95;;
74363;SDS011;62797;49.740;10.154;2024-03-25T09:04:32;12.57;;;4.03;;
74363;SDS011;62797;49.740;10.154;2024-03-25T09:07:04;10.05;;;3.35;;
74363;SDS011;62797;49.740;10.154;2024-03-25T09:09:35;14.85;;;4.85;;
74363;SDS011;62797;49.740;10.154;2024-03-25T09:12:26;3.85;;;2.33;;
74363;SDS011;62797;49.740;10.154;2024-03-25T09:14:59;12.32;;;3.15;;
74363;SDS011;62797;49.740;10.154;2024-03-25T09:17:30;9.13;;;3.33;;
74363;SDS011;62797;49.740;10.154;2024-03-25T09:20:03;8.98;;;4.13;;
74363;SDS011;62797;49.740;10.154;2024-03-25T09:22:37;15.50;;;3.00;;
74363;SDS011;62797;49.740;10.154;2024-03-25T09:25:10;8.98;;;3.10;;
74363;SDS011;62797;49.740;10.154;2024-03-25T09:27:46;5.05;;;3.22;;
74363;SDS011;62797;49.740;10.154;2024-03-25T09:30:21;8.77;;;4.38;;
74363;SDS011;62797;49.740;10.154;2024-03-25T09:32:53;7.68;;;3.17;;
74363;SDS011;62797;49.740;10.154;2024-03-25T09:35:25;9.40;;;3.30;;
74363;SDS011;62797;49.740;10.154;2024-03-25T09:37:57;9.98;;;3.55;;
74363;SDS011;62797;49.740;10.154;2024-03-25T09:40:29;9.82;;;3.60;;
74363;SDS011;62797;49.740;10.154;2024-03-25T09:43:10;6.07;;;2.83;;
74363;SDS011;62797;49.740;10.154;2024-03-25T09:45:48;14.65;;;4.05;;
74363;SDS011;62797;49.740;10.154;2024-03-25T09:48:24;9.02;;;3.85;;
74363;SDS011;62797;49.740;10.154;2024-03-25T09:50:55;5.47;;;2.40;;
74363;SDS011;62797;49.740;10.154;2024-03-25T09:53:27;6.85;;;3.55;;
74363;SDS011;62797;49.740;10.154;2024-03-25T09:55:59;9.80;;;2.67;;
74363;SDS011;62797;49.740;10.154;2024-03-25T09:58:31;6.05;;;2.60;;
74363;SDS011;62797;49.740;10.154;2024-03-25T10:01:04;4.85;;;2.75;;
74363;SDS011;62797;49.740;10.154;2024-03-25T10:03:36;6.90;;;3.45;;
74363;SDS011;62797;49.740;10.154;2024-03-25T10:06:08;8.63;;;3.58;;
74363;SDS011;62797;49.740;10.154;2024-03-25T10:08:42;6.50;;;3.10;;
74363;SDS011;62797;49.740;10.154;2024-03-25T10:11:15;4.60;;;2.10;;
74363;SDS011;62797;49.740;10.154;2024-03-25T10:13:46;7.15;;;2.65;;
74363;SDS011;62797;49.740;10.154;2024-03-25T10:16:27;8.23;;;2.97;;
74363;SDS011;62797;49.740;10.154;2024-03-25T10:18:59;14.07;;;3.05;;
74363;SDS011;62797;49.740;10.154;2024-03-25T10:21:31;10.25;;;4.72;;
74363;SDS011;62797;49.740;10.154;2024-03-25T10:24:04;10.13;;;2.85;;
74363;SDS011;62797;49.740;10.154;2024-03-25T10:26:36;14.57;;;2.78;;
74363;SDS011;62797;49.740;10.154;2024-03-25T10:29:10;9.95;;;3.38;;
74363;SDS011;62797;49.740;10.154;2024-03-25T10:31:42;10.85;;;4.07;;
74363;SDS011;62797;49.740;10.154;2024-03-25T10:34:16;9.85;;;2.70;;
74363;SDS011;62797;49.740;10.154;2024-03-25T10:36:48;17.75;;;3.33;;
74363;SDS011;62797;49.740;10.154;2024-03-25T10:39:20;12.20;;;3.00;;
74363;SDS011;62797;49.740;10.154;2024-03-25T10:41:58;7.70;;;3.20;;
74363;SDS011;62797;49.740;10.154;2024-03-25T10:44:35;7.35;;;3.15;;
74363;SDS011;62797;49.740;10.154;2024-03-25T10:47:23;8.13;;;2.67;;
74363;SDS011;62797;49.740;10.154;2024-03-25T10:49:59;16.20;;;3.83;;
74363;SDS011;62797;49.740;10.154;2024-03-25T10:52:36;10.70;;;2.97;;
74363;SDS011;62797;49.740;10.154;2024-03-25T10:55:08;11.10;;;2.83;;
74363;SDS011;62797;49.740;10.154;2024-03-25T10:57:42;6.78;;;2.25;;
74363;SDS011;62797;49.740;10.154;2024-03-25T11:00:22;8.85;;;2.70;;
74363;SDS011;62797;49.740;10.154;2024-03-25T11:03:01;9.55;;;2.58;;
74363;SDS011;62797;49.740;10.154;2024-03-25T11:08:32;7.57;;;2.58;;
74363;SDS011;62797;49.740;10.154;2024-03-25T11:11:05;8.55;;;2.60;;
74363;SDS011;62797;49.740;10.154;2024-03-25T11:13:38;6.90;;;2.38;;
74363;SDS011;62797;49.740;10.154;2024-03-25T11:16:10;8.50;;;3.13;;
74363;SDS011;62797;49.740;10.154;2024-03-25T11:18:50;11.45;;;3.50;;
74363;SDS011;62797;49.740;10.154;2024-03-25T11:21:25;6.90;;;2.45;;
74363;SDS011;62797;49.740;10.154;2024-03-25T11:24:06;5.70;;;2.53;;
74363;SDS011;62797;49.740;10.154;2024-03-25T11:26:42;11.70;;;3.17;;
74363;SDS011;62797;49.740;10.154;2024-03-25T11:29:15;9.60;;;2.83;;
74363;SDS011;62797;49.740;10.154;2024-03-25T11:31:50;10.30;;;3.13;;
74363;SDS011;62797;49.740;10.154;2024-03-25T11:34:30;8.85;;;2.95;;
74363;SDS011;62797;49.740;10.154;2024-03-25T11:37:03;8.93;;;2.40;;
74363;SDS011;62797;49.740;10.154;2024-03-25T11:39:42;5.65;;;2.10;;
74363;SDS011;62797;49.740;10.154;2024-03-25T11:42:14;8.32;;;2.47;;
74363;SDS011;62797;49.740;10.154;2024-03-25T11:44:46;6.18;;;2.25;;
74363;SDS011;62797;49.740;10.154;2024-03-25T11:47:20;6.10;;;3.03;;
74363;SDS011;62797;49.740;10.154;2024-03-25T11:49:53;6.13;;;2.42;;
74363;SDS011;62797;49.740;10.154;2024-03-25T11:52:31;6.07;;;2.70;;
74363;SDS011;62797;49.740;10.154;2024-03-25T11:55:05;17.55;;;3.75;;
74363;SDS011;62797;49.740;10.154;2024-03-25T11:57:39;7.07;;;2.35;;
74363;SDS011;62797;49.740;10.154;2024-03-25T12:00:18;7.20;;;2.78;;
74363;SDS011;62797;49.740;10.154;2024-03-25T12:02:50;6.82;;;2.70;;
74363;SDS011;62797;49.740;10.154;2024-03-25T12:05:24;4.10;;;2.00;;
74363;SDS011;62797;49.740;10.154;2024-03-25T12:07:56;7.28;;;2.22;;
74363;SDS011;62797;49.740;10.154;2024-03-25T12:10:28;10.82;;;2.83;;
74363;SDS011;62797;49.740;10.154;2024-03-25T12:13:19;9.32;;;2.67;;
74363;SDS011;62797;49.740;10.154;2024-03-25T12:15:51;5.25;;;2.00;;
74363;SDS011;62797;49.740;10.154;2024-03-25T12:18:24;8.27;;;2.28;;
74363;SDS011;62797;49.740;10.154;2024-03-25T12:20:57;8.93;;;3.10;;
74363;SDS011;62797;49.740;10.154;2024-03-25T12:23:30;8.38;;;2.78;;
74363;SDS011;62797;49.740;10.154;2024-03-25T12:26:04;7.50;;;2.45;;
74363;SDS011;62797;49.740;10.154;2024-03-25T12:28:36;6.82;;;2.13;;
74363;SDS011;62797;49.740;10.154;2024-03-25T12:31:09;8.50;;;2.53;;
74363;SDS011;62797;49.740;10.154;2024-03-25T12:33:46;14.70;;;4.38;;
74363;SDS011;62797;49.740;10.154;2024-03-25T12:36:17;6.60;;;2.45;;
74363;SDS011;62797;49.740;10.154;2024-03-25T12:38:57;4.22;;;2.13;;
74363;SDS011;62797;49.740;10.154;2024-03-25T12:41:28;9.70;;;2.33;;
74363;SDS011;62797;49.740;10.154;2024-03-25T12:44:00;4.72;;;1.98;;
74363;SDS011;62797;49.740;10.154;2024-03-25T12:46:32;12.27;;;2.30;;
74363;SDS011;62797;49.740;10.154;2024-03-25T12:49:05;11.52;;;2.72;;
74363;SDS011;62797;49.740;10.154;2024-03-25T12:51:38;3.50;;;1.83;;
74363;SDS011;62797;49.740;10.154;2024-03-25T12:54:09;5.55;;;2.20;;
74363;SDS011;62797;49.740;10.154;2024-03-25T12:56:42;7.45;;;2.38;;
74363;SDS011;62797;49.740;10.154;2024-03-25T12:59:14;12.73;;;3.70;;
74363;SDS011;62797;49.740;10.154;2024-03-25T13:01:46;9.40;;;3.08;;
74363;SDS011;62797;49.740;10.154;2024-03-25T13:04:18;6.38;;;2.08;;
74363;SDS011;62797;49.740;10.154;2024-03-25T13:06:50;4.20;;;2.30;;
74363;SDS011;62797;49.740;10.154;2024-03-25T13:09:22;4.50;;;2.00;;
74363;SDS011;62797;49.740;10.154;2024-03-25T13:11:54;11.15;;;2.92;;
74363;SDS011;62797;49.740;10.154;2024-03-25T13:14:27;7.88;;;2.33;;
74363;SDS011;62797;49.740;10.154;2024-03-25T13:17:00;3.15;;;2.08;;
74363;SDS011;62797;49.740;10.154;2024-03-25T13:19:32;9.82;;;2.70;;
74363;SDS011;62797;49.740;10.154;2024-03-25T13:22:04;5.63;;;2.58;;
74363;SDS011;62797;49.740;10.154;2024-03-25T13:24:37;9.85;;;2.08;;
74363;SDS011;62797;49.740;10.154;2024-03-25T13:27:09;7.55;;;2.55;;
74363;SDS011;62797;49.740;10.154;2024-03-25T13:29:42;12.10;;;2.40;;
74363;SDS011;62797;49.740;10.154;2024-03-25T13:32:13;8.00;;;3.55;;
74363;SDS011;62797;49.740;10.154;2024-03-25T13:34:46;8.05;;;2.55;;
74363;SDS011;62797;49.740;10.154;2024-03-25T13:37:18;4.20;;;2.30;;
74363;SDS011;62797;49.740;10.154;2024-03-25T13:39:50;7.60;;;2.13;;
74363;SDS011;62797;49.740;10.154;2024-03-25T13:42:25;12.50;;;2.58;;
74363;SDS011;62797;49.740;10.154;2024-03-25T13:44:57;6.30;;;2.88;;
74363;SDS011;62797;49.740;10.154;2024-03-25T13:47:30;4.07;;;2.42;;
74363;SDS011;62797;49.740;10.154;2024-03-25T13:53:13;10.55;;;2.20;;
74363;SDS011;62797;49.740;10.154;2024-03-25T13:55:46;6.15;;;2.38;;
74363;SDS011;62797;49.740;10.154;2024-03-25T13:58:17;5.20;;;2.25;;
74363;SDS011;62797;49.740;10.154;2024-03-25T14:00:49;5.53;;;2.45;;
74363;SDS011;62797;49.740;10.154;2024-03-25T14:06:58;5.47;;;2.50;;
74363;SDS011;62797;49.740;10.154;2024-03-25T14:09:29;5.07;;;2.20;;
74363;SDS011;62797;49.740;10.154;2024-03-25T14:12:02;7.85;;;2.85;;
74363;SDS011;62797;49.740;10.154;2024-03-25T14:14:35;4.93;;;2.40;;
74363;SDS011;62797;49.740;10.154;2024-03-25T14:17:06;8.10;;;2.50;;
74363;SDS011;62797;49.740;10.154;2024-03-25T14:19:38;6.95;;;2.50;;
74363;SDS011;62797;49.740;10.154;2024-03-25T14:22:10;6.85;;;3.13;;
74363;SDS011;62797;49.740;10.154;2024-03-25T14:24:43;4.72;;;2.00;;
74363;SDS011;62797;49.740;10.154;2024-03-25T14:30:28;7.85;;;3.13;;
74363;SDS011;62797;49.740;10.154;2024-03-25T14:33:00;6.32;;;2.65;;
74363;SDS011;62797;49.740;10.154;2024-03-25T14:35:32;2.95;;;1.67;;
74363;SDS011;62797;49.740;10.154;2024-03-25T14:38:04;4.07;;;2.47;;
74363;SDS011;62797;49.740;10.154;2024-03-25T14:40:38;5.28;;;1.85;;
74363;SDS011;62797;49.740;10.154;2024-03-25T14:43:11;3.50;;;2.05;;
74363;SDS011;62797;49.740;10.154;2024-03-25T14:45:45;4.53;;;1.48;;
74363;SDS011;62797;49.740;10.154;2024-03-25T14:48:17;2.50;;;1.60;;
74363;SDS011;62797;49.740;10.154;2024-03-25T14:50:49;4.03;;;1.88;;
74363;SDS011;62797;49.740;10.154;2024-03-25T14:53:28;3.28;;;1.88;;
74363;SDS011;62797;49.740;10.154;2024-03-25T14:56:01;5.70;;;2.33;;
74363;SDS011;62797;49.740;10.154;2024-03-25T14:58:40;4.07;;;2.13;;
74363;SDS011;62797;49.740;10.154;2024-03-25T15:01:12;3.95;;;1.90;;
74363;SDS011;62797;49.740;10.154;2024-03-25T15:03:51;5.15;;;1.95;;
74363;SDS011;62797;49.740;10.154;2024-03-25T15:06:23;8.32;;;2.35;;
74363;SDS011;62797;49.740;10.154;2024-03-25T15:08:56;6.53;;;2.30;;
74363;SDS011;62797;49.740;10.154;2024-03-25T15:11:28;5.93;;;2.25;;
74363;SDS011;62797;49.740;10.154;2024-03-25T15:14:03;8.00;;;1.80;;
74363;SDS011;62797;49.740;10.154;2024-03-25T15:16:35;5.18;;;1.77;;
74363;SDS011;62797;49.740;10.154;2024-03-25T15:19:07;7.68;;;2.03;;
74363;SDS011;62797;49.740;10.154;2024-03-25T15:21:39;3.67;;;1.83;;
74363;SDS011;62797;49.740;10.154;2024-03-25T15:24:12;2.25;;;1.67;;
74363;SDS011;62797;49.740;10.154;2024-03-25T15:26:44;4.72;;;1.50;;